sensor_id;sensor_type;location;lat;lon;timestamp;pressure;altitude;pressure_sealevel;temperature;humidity
33075;BME280;19433;51.292;6.868;2023-02-14T00:02:05;102264.28;;;5.38;94.73
33075;BME280;19433;51.292;6.868;2023-02-14T00:04:30;102257.56;;;5.42;94.15
33075;BME280;19433;51.292;6.868;2023-02-14T00:06:56;102260.28;;;5.53;93.45
33075;BME280;19433;51.292;6.868;2023-02-14T00:09:21;102259.50;;;5.62;92.57
33075;BME280;19433;51.292;6.868;2023-02-14T00:11:47;102259.38;;;5.64;92.11
33075;BME280;19433;51.292;6.868;2023-02-14T00:14:12;102251.28;;;5.62;91.22
33075;BME280;19433;51.292;6.868;2023-02-14T00:16:56;102256.94;;;5.82;90.86
33075;BME280;19433;51.292;6.868;2023-02-14T00:19:22;102250.19;;;5.86;90.12
33075;BME280;19433;51.292;6.868;2023-02-14T00:21:48;102251.63;;;5.80;90.23
33075;BME280;19433;51.292;6.868;2023-02-14T00:24:18;102250.88;;;5.78;90.30
33075;BME280;19433;51.292;6.868;2023-02-14T00:26:45;102245.88;;;5.72;90.56
33075;BME280;19433;51.292;6.868;2023-02-14T00:29:12;102241.78;;;5.66;91.08
33075;BME280;19433;51.292;6.868;2023-02-14T00:31:38;102254.00;;;5.74;90.37
33075;BME280;19433;51.292;6.868;2023-02-14T00:34:05;102237.84;;;5.59;90.23
33075;BME280;19433;51.292;6.868;2023-02-14T00:36:31;102251.03;;;5.54;91.22
33075;BME280;19433;51.292;6.868;2023-02-14T00:38:56;102245.47;;;5.45;91.92
33075;BME280;19433;51.292;6.868;2023-02-14T00:41:22;102241.13;;;5.42;92.28
33075;BME280;19433;51.292;6.868;2023-02-14T00:43:49;102247.84;;;5.38;92.09
33075;BME280;19433;51.292;6.868;2023-02-14T00:46:17;102243.13;;;5.29;93.37
33075;BME280;19433;51.292;6.868;2023-02-14T00:48:43;102242.88;;;5.32;92.84
33075;BME280;19433;51.292;6.868;2023-02-14T00:51:09;102235.25;;;5.36;92.94
33075;BME280;19433;51.292;6.868;2023-02-14T00:53:35;102249.59;;;5.39;92.72
33075;BME280;19433;51.292;6.868;2023-02-14T00:56:01;102247.50;;;5.32;92.85
33075;BME280;19433;51.292;6.868;2023-02-14T00:58:26;102246.63;;;5.09;93.85
33075;BME280;19433;51.292;6.868;2023-02-14T01:00:52;102247.53;;;4.98;94.51
33075;BME280;19433;51.292;6.868;2023-02-14T01:03:17;102241.66;;;4.91;95.65
33075;BME280;19433;51.292;6.868;2023-02-14T01:05:43;102254.59;;;4.89;95.92
33075;BME280;19433;51.292;6.868;2023-02-14T01:08:08;102254.97;;;4.74;96.98
33075;BME280;19433;51.292;6.868;2023-02-14T01:10:35;102261.19;;;4.53;97.43
33075;BME280;19433;51.292;6.868;2023-02-14T01:13:01;102255.06;;;4.61;97.80
33075;BME280;19433;51.292;6.868;2023-02-14T01:15:26;102267.00;;;4.49;98.47
33075;BME280;19433;51.292;6.868;2023-02-14T01:17:52;102268.56;;;4.29;99.34
33075;BME280;19433;51.292;6.868;2023-02-14T01:20:17;102257.38;;;4.32;100.00
33075;BME280;19433;51.292;6.868;2023-02-14T01:22:42;102258.78;;;4.38;100.00
33075;BME280;19433;51.292;6.868;2023-02-14T01:25:08;102249.59;;;4.50;99.35
33075;BME280;19433;51.292;6.868;2023-02-14T01:27:33;102239.53;;;4.62;98.68
33075;BME280;19433;51.292;6.868;2023-02-14T01:29:58;102245.72;;;4.41;99.05
33075;BME280;19433;51.292;6.868;2023-02-14T01:32:24;102245.09;;;4.38;99.26
33075;BME280;19433;51.292;6.868;2023-02-14T01:34:49;102245.22;;;4.47;99.34
33075;BME280;19433;51.292;6.868;2023-02-14T01:37:14;102258.91;;;4.36;99.22
33075;BME280;19433;51.292;6.868;2023-02-14T01:39:40;102254.41;;;4.35;100.00
33075;BME280;19433;51.292;6.868;2023-02-14T01:42:05;102254.41;;;4.24;100.00
33075;BME280;19433;51.292;6.868;2023-02-14T01:46:57;102245.66;;;4.19;100.00
33075;BME280;19433;51.292;6.868;2023-02-14T01:49:27;102245.88;;;4.05;100.00
33075;BME280;19433;51.292;6.868;2023-02-14T01:51:58;102239.72;;;3.90;100.00
33075;BME280;19433;51.292;6.868;2023-02-14T01:54:26;102230.16;;;3.61;100.00
33075;BME280;19433;51.292;6.868;2023-02-14T01:57:01;102240.78;;;3.52;100.00
33075;BME280;19433;51.292;6.868;2023-02-14T01:59:33;102230.66;;;3.42;100.00
33075;BME280;19433;51.292;6.868;2023-02-14T02:02:01;102248.63;;;3.33;100.00
33075;BME280;19433;51.292;6.868;2023-02-14T02:04:40;102234.00;;;3.22;100.00
33075;BME280;19433;51.292;6.868;2023-02-14T02:07:10;102239.16;;;3.50;100.00
33075;BME280;19433;51.292;6.868;2023-02-14T02:09:49;102234.91;;;3.46;100.00
33075;BME280;19433;51.292;6.868;2023-02-14T02:12:17;102223.88;;;3.47;100.00
33075;BME280;19433;51.292;6.868;2023-02-14T02:14:42;102234.63;;;3.62;100.00
33075;BME280;19433;51.292;6.868;2023-02-14T02:20:27;102234.03;;;3.69;100.00
33075;BME280;19433;51.292;6.868;2023-02-14T02:29:00;102222.78;;;3.85;100.00
33075;BME280;19433;51.292;6.868;2023-02-14T02:34:56;102227.56;;;3.94;100.00
33075;BME280;19433;51.292;6.868;2023-02-14T02:37:24;102221.25;;;4.05;100.00
33075;BME280;19433;51.292;6.868;2023-02-14T02:45:30;102218.88;;;4.00;100.00
33075;BME280;19433;51.292;6.868;2023-02-14T02:48:13;102225.50;;;4.09;100.00
33075;BME280;19433;51.292;6.868;2023-02-14T02:50:48;102200.28;;;4.16;100.00
33075;BME280;19433;51.292;6.868;2023-02-14T02:53:47;102207.22;;;4.09;100.00
33075;BME280;19433;51.292;6.868;2023-02-14T02:56:36;102203.41;;;4.12;100.00
33075;BME280;19433;51.292;6.868;2023-02-14T02:59:23;102197.53;;;4.16;100.00
33075;BME280;19433;51.292;6.868;2023-02-14T03:02:19;102212.09;;;4.28;100.00
33075;BME280;19433;51.292;6.868;2023-02-14T03:04:53;102203.41;;;4.12;100.00
33075;BME280;19433;51.292;6.868;2023-02-14T03:10:05;102206.34;;;4.09;100.00
33075;BME280;19433;51.292;6.868;2023-02-14T03:17:42;102211.09;;;4.18;100.00
33075;BME280;19433;51.292;6.868;2023-02-14T03:20:16;102198.63;;;4.03;100.00
33075;BME280;19433;51.292;6.868;2023-02-14T03:22:54;102204.84;;;4.05;100.00
33075;BME280;19433;51.292;6.868;2023-02-14T03:25:46;102204.00;;;4.15;100.00
33075;BME280;19433;51.292;6.868;2023-02-14T03:30:56;102218.94;;;4.22;100.00
33075;BME280;19433;51.292;6.868;2023-02-14T03:33:39;102201.44;;;4.36;100.00
33075;BME280;19433;51.292;6.868;2023-02-14T03:36:14;102220.47;;;4.38;100.00
33075;BME280;19433;51.292;6.868;2023-02-14T03:38:44;102217.84;;;4.25;100.00
33075;BME280;19433;51.292;6.868;2023-02-14T03:41:18;102208.13;;;4.32;100.00
33075;BME280;19433;51.292;6.868;2023-02-14T03:43:48;102215.34;;;4.33;100.00
33075;BME280;19433;51.292;6.868;2023-02-14T03:46:19;102227.53;;;4.29;100.00
33075;BME280;19433;51.292;6.868;2023-02-14T03:48:49;102213.34;;;4.24;100.00
33075;BME280;19433;51.292;6.868;2023-02-14T03:51:17;102216.31;;;4.10;100.00
33075;BME280;19433;51.292;6.868;2023-02-14T03:53:46;102211.09;;;4.18;100.00
33075;BME280;19433;51.292;6.868;2023-02-14T03:56:35;102198.28;;;4.18;100.00
33075;BME280;19433;51.292;6.868;2023-02-14T03:59:06;102199.84;;;3.99;100.00
33075;BME280;19433;51.292;6.868;2023-02-14T04:01:39;102203.09;;;4.04;100.00
33075;BME280;19433;51.292;6.868;2023-02-14T04:04:07;102192.38;;;3.89;100.00
33075;BME280;19433;51.292;6.868;2023-02-14T04:06:33;102200.03;;;3.84;100.00
33075;BME280;19433;51.292;6.868;2023-02-14T04:08:59;102205.72;;;3.70;100.00
33075;BME280;19433;51.292;6.868;2023-02-14T04:11:24;102207.00;;;3.77;100.00
33075;BME280;19433;51.292;6.868;2023-02-14T04:13:49;102198.50;;;3.69;100.00
33075;BME280;19433;51.292;6.868;2023-02-14T04:16:14;102215.69;;;3.47;100.00
33075;BME280;19433;51.292;6.868;2023-02-14T04:18:40;102205.44;;;3.38;100.00
33075;BME280;19433;51.292;6.868;2023-02-14T04:21:24;102201.03;;;3.48;100.00
33075;BME280;19433;51.292;6.868;2023-02-14T04:23:49;102211.44;;;3.43;100.00
33075;BME280;19433;51.292;6.868;2023-02-14T04:26:14;102200.84;;;3.39;100.00
33075;BME280;19433;51.292;6.868;2023-02-14T04:28:40;102197.31;;;3.49;100.00
33075;BME280;19433;51.292;6.868;2023-02-14T04:31:05;102202.72;;;3.62;100.00
33075;BME280;19433;51.292;6.868;2023-02-14T04:33:31;102205.66;;;3.59;100.00
33075;BME280;19433;51.292;6.868;2023-02-14T04:35:58;102200.03;;;3.49;100.00
33075;BME280;19433;51.292;6.868;2023-02-14T04:38:23;102211.66;;;3.40;100.00
33075;BME280;19433;51.292;6.868;2023-02-14T04:40:49;102205.50;;;3.49;100.00
33075;BME280;19433;51.292;6.868;2023-02-14T04:43:15;102188.47;;;3.46;100.00
33075;BME280;19433;51.292;6.868;2023-02-14T04:45:40;102195.50;;;3.61;100.00
33075;BME280;19433;51.292;6.868;2023-02-14T04:48:06;102181.72;;;3.63;100.00
33075;BME280;19433;51.292;6.868;2023-02-14T04:50:31;102186.81;;;3.67;100.00
33075;BME280;19433;51.292;6.868;2023-02-14T04:52:56;102195.16;;;3.66;100.00
33075;BME280;19433;51.292;6.868;2023-02-14T04:55:21;102190.78;;;3.63;100.00
33075;BME280;19433;51.292;6.868;2023-02-14T04:57:47;102182.34;;;3.66;100.00
33075;BME280;19433;51.292;6.868;2023-02-14T05:00:12;102182.78;;;3.49;100.00
33075;BME280;19433;51.292;6.868;2023-02-14T05:02:38;102175.69;;;3.46;100.00
33075;BME280;19433;51.292;6.868;2023-02-14T05:05:03;102175.78;;;3.45;100.00
33075;BME280;19433;51.292;6.868;2023-02-14T05:07:29;102179.28;;;3.47;100.00
33075;BME280;19433;51.292;6.868;2023-02-14T05:09:54;102162.59;;;3.39;100.00
33075;BME280;19433;51.292;6.868;2023-02-14T05:12:19;102172.88;;;3.59;100.00
33075;BME280;19433;51.292;6.868;2023-02-14T05:14:44;102171.53;;;3.41;100.00
33075;BME280;19433;51.292;6.868;2023-02-14T05:17:10;102154.56;;;3.25;100.00
33075;BME280;19433;51.292;6.868;2023-02-14T05:19:36;102164.69;;;3.11;100.00
33075;BME280;19433;51.292;6.868;2023-02-14T05:22:01;102166.13;;;3.04;100.00
33075;BME280;19433;51.292;6.868;2023-02-14T05:24:26;102165.31;;;2.78;100.00
33075;BME280;19433;51.292;6.868;2023-02-14T05:26:52;102145.94;;;2.94;100.00
33075;BME280;19433;51.292;6.868;2023-02-14T05:29:17;102159.72;;;2.93;100.00
33075;BME280;19433;51.292;6.868;2023-02-14T05:31:42;102153.00;;;3.09;100.00
33075;BME280;19433;51.292;6.868;2023-02-14T05:34:08;102163.69;;;2.89;100.00
33075;BME280;19433;51.292;6.868;2023-02-14T05:36:33;102154.72;;;2.87;100.00
33075;BME280;19433;51.292;6.868;2023-02-14T05:38:58;102153.91;;;2.73;100.00
33075;BME280;19433;51.292;6.868;2023-02-14T05:41:23;102149.38;;;2.85;100.00
33075;BME280;19433;51.292;6.868;2023-02-14T05:43:49;102152.16;;;2.96;100.00
33075;BME280;19433;51.292;6.868;2023-02-14T05:46:14;102152.00;;;2.87;100.00
33075;BME280;19433;51.292;6.868;2023-02-14T05:48:39;102144.91;;;2.84;100.00
33075;BME280;19433;51.292;6.868;2023-02-14T05:51:08;102144.47;;;2.77;100.00
33075;BME280;19433;51.292;6.868;2023-02-14T05:53:34;102150.72;;;2.67;100.00
33075;BME280;19433;51.292;6.868;2023-02-14T05:55:59;102158.25;;;2.63;100.00
33075;BME280;19433;51.292;6.868;2023-02-14T05:58:25;102164.91;;;2.72;100.00
33075;BME280;19433;51.292;6.868;2023-02-14T06:00:50;102161.50;;;2.81;100.00
33075;BME280;19433;51.292;6.868;2023-02-14T06:03:16;102155.06;;;2.82;100.00
33075;BME280;19433;51.292;6.868;2023-02-14T06:05:41;102163.28;;;2.69;100.00
33075;BME280;19433;51.292;6.868;2023-02-14T06:08:06;102155.19;;;2.68;100.00
33075;BME280;19433;51.292;6.868;2023-02-14T06:10:31;102153.91;;;2.61;100.00
33075;BME280;19433;51.292;6.868;2023-02-14T06:12:57;102158.78;;;2.81;100.00
33075;BME280;19433;51.292;6.868;2023-02-14T06:15:23;102160.44;;;2.71;100.00
33075;BME280;19433;51.292;6.868;2023-02-14T06:17:56;102160.56;;;2.69;100.00
33075;BME280;19433;51.292;6.868;2023-02-14T06:20:22;102156.81;;;2.83;100.00
33075;BME280;19433;51.292;6.868;2023-02-14T06:22:48;102168.72;;;2.82;100.00
33075;BME280;19433;51.292;6.868;2023-02-14T06:25:14;102162.63;;;2.66;100.00
33075;BME280;19433;51.292;6.868;2023-02-14T06:27:39;102172.41;;;2.81;100.00
33075;BME280;19433;51.292;6.868;2023-02-14T06:30:05;102174.09;;;2.71;100.00
33075;BME280;19433;51.292;6.868;2023-02-14T06:32:30;102179.72;;;2.80;100.00
33075;BME280;19433;51.292;6.868;2023-02-14T06:34:56;102184.16;;;2.94;100.00
33075;BME280;19433;51.292;6.868;2023-02-14T06:37:21;102195.31;;;2.91;100.00
33075;BME280;19433;51.292;6.868;2023-02-14T06:39:46;102190.19;;;2.99;100.00
33075;BME280;19433;51.292;6.868;2023-02-14T06:42:12;102189.53;;;2.96;100.00
33075;BME280;19433;51.292;6.868;2023-02-14T06:44:37;102192.81;;;3.25;100.00
33075;BME280;19433;51.292;6.868;2023-02-14T06:47:02;102191.44;;;3.06;100.00
33075;BME280;19433;51.292;6.868;2023-02-14T06:49:28;102192.41;;;3.18;100.00
33075;BME280;19433;51.292;6.868;2023-02-14T06:51:53;102194.19;;;3.06;100.00
33075;BME280;19433;51.292;6.868;2023-02-14T06:54:19;102192.47;;;3.05;100.00
33075;BME280;19433;51.292;6.868;2023-02-14T06:56:44;102173.47;;;3.04;100.00
33075;BME280;19433;51.292;6.868;2023-02-14T06:59:09;102188.72;;;3.06;100.00
33075;BME280;19433;51.292;6.868;2023-02-14T07:01:35;102187.13;;;3.04;100.00
33075;BME280;19433;51.292;6.868;2023-02-14T07:04:00;102187.84;;;3.06;100.00
33075;BME280;19433;51.292;6.868;2023-02-14T07:06:25;102197.16;;;3.27;100.00
33075;BME280;19433;51.292;6.868;2023-02-14T07:08:50;102191.88;;;3.13;100.00
33075;BME280;19433;51.292;6.868;2023-02-14T07:11:16;102199.63;;;3.19;100.00
33075;BME280;19433;51.292;6.868;2023-02-14T07:13:42;102198.75;;;3.42;100.00
33075;BME280;19433;51.292;6.868;2023-02-14T07:16:08;102192.25;;;3.32;100.00
33075;BME280;19433;51.292;6.868;2023-02-14T07:18:34;102198.38;;;3.36;100.00
33075;BME280;19433;51.292;6.868;2023-02-14T07:20:59;102194.91;;;3.45;100.00
33075;BME280;19433;51.292;6.868;2023-02-14T07:23:25;102195.16;;;3.42;100.00
33075;BME280;19433;51.292;6.868;2023-02-14T07:25:50;102173.28;;;3.42;100.00
33075;BME280;19433;51.292;6.868;2023-02-14T07:28:15;102197.13;;;3.40;100.00
33075;BME280;19433;51.292;6.868;2023-02-14T07:30:40;102195.16;;;3.42;100.00
33075;BME280;19433;51.292;6.868;2023-02-14T07:33:06;102189.38;;;3.58;100.00
33075;BME280;19433;51.292;6.868;2023-02-14T07:35:31;102186.88;;;3.54;100.00
33075;BME280;19433;51.292;6.868;2023-02-14T07:37:57;102185.69;;;3.70;100.00
33075;BME280;19433;51.292;6.868;2023-02-14T07:40:23;102177.25;;;3.62;100.00
33075;BME280;19433;51.292;6.868;2023-02-14T07:42:53;102178.00;;;3.64;100.00
33075;BME280;19433;51.292;6.868;2023-02-14T07:45:18;102191.09;;;3.82;100.00
33075;BME280;19433;51.292;6.868;2023-02-14T07:47:44;102189.13;;;3.84;100.00
33075;BME280;19433;51.292;6.868;2023-02-14T07:50:09;102178.59;;;4.02;100.00
33075;BME280;19433;51.292;6.868;2023-02-14T07:52:34;102182.56;;;3.98;100.00
33075;BME280;19433;51.292;6.868;2023-02-14T07:55:00;102184.19;;;4.01;100.00
33075;BME280;19433;51.292;6.868;2023-02-14T07:57:25;102175.41;;;4.08;100.00
33075;BME280;19433;51.292;6.868;2023-02-14T07:59:51;102192.16;;;4.04;100.00
33075;BME280;19433;51.292;6.868;2023-02-14T08:02:16;102191.31;;;4.14;100.00
33075;BME280;19433;51.292;6.868;2023-02-14T08:04:42;102192.63;;;4.77;99.85
33075;BME280;19433;51.292;6.868;2023-02-14T08:07:07;102181.34;;;5.68;95.02
33075;BME280;19433;51.292;6.868;2023-02-14T08:09:32;102198.59;;;7.33;86.47
33075;BME280;19433;51.292;6.868;2023-02-14T08:11:58;102196.47;;;8.90;77.04
33075;BME280;19433;51.292;6.868;2023-02-14T08:14:42;102209.38;;;10.68;68.12
33075;BME280;19433;51.292;6.868;2023-02-14T08:17:09;102206.59;;;11.36;63.17
33075;BME280;19433;51.292;6.868;2023-02-14T08:19:35;102205.34;;;10.37;65.50
33075;BME280;19433;51.292;6.868;2023-02-14T08:22:02;102193.81;;;8.70;73.41
33075;BME280;19433;51.292;6.868;2023-02-14T08:24:27;102188.53;;;7.82;78.32
33075;BME280;19433;51.292;6.868;2023-02-14T08:26:53;102177.72;;;7.12;81.78
33075;BME280;19433;51.292;6.868;2023-02-14T08:29:18;102198.03;;;6.90;84.18
33075;BME280;19433;51.292;6.868;2023-02-14T08:31:44;102193.34;;;6.71;85.22
33075;BME280;19433;51.292;6.868;2023-02-14T08:34:11;102172.91;;;6.64;85.79
33075;BME280;19433;51.292;6.868;2023-02-14T08:36:36;102194.94;;;6.74;85.80
33075;BME280;19433;51.292;6.868;2023-02-14T08:39:03;102191.41;;;6.92;85.55
33075;BME280;19433;51.292;6.868;2023-02-14T08:41:29;102192.53;;;7.30;84.63
33075;BME280;19433;51.292;6.868;2023-02-14T08:43:54;102198.84;;;7.90;81.31
33075;BME280;19433;51.292;6.868;2023-02-14T08:46:19;102194.94;;;8.77;76.22
33075;BME280;19433;51.292;6.868;2023-02-14T08:48:45;102189.69;;;9.11;73.73
33075;BME280;19433;51.292;6.868;2023-02-14T08:51:12;102202.44;;;10.03;69.81
33075;BME280;19433;51.292;6.868;2023-02-14T08:53:38;102212.91;;;10.86;65.19
33075;BME280;19433;51.292;6.868;2023-02-14T08:56:07;102209.03;;;11.97;61.63
33075;BME280;19433;51.292;6.868;2023-02-14T08:58:32;102211.56;;;12.96;57.64
33075;BME280;19433;51.292;6.868;2023-02-14T09:01:00;102208.44;;;14.23;52.84
33075;BME280;19433;51.292;6.868;2023-02-14T09:03:25;102209.56;;;14.60;50.66
33075;BME280;19433;51.292;6.868;2023-02-14T09:05:50;102206.59;;;15.49;47.71
33075;BME280;19433;51.292;6.868;2023-02-14T09:08:16;102208.28;;;15.80;45.92
33075;BME280;19433;51.292;6.868;2023-02-14T09:10:41;102200.31;;;15.11;47.78
33075;BME280;19433;51.292;6.868;2023-02-14T09:13:06;102213.09;;;16.29;45.44
33075;BME280;19433;51.292;6.868;2023-02-14T09:15:32;102208.59;;;17.05;42.80
33075;BME280;19433;51.292;6.868;2023-02-14T09:17:57;102193.50;;;16.93;42.91
33075;BME280;19433;51.292;6.868;2023-02-14T09:20:22;102206.22;;;17.02;42.06
33075;BME280;19433;51.292;6.868;2023-02-14T09:22:48;102200.25;;;17.11;41.17
33075;BME280;19433;51.292;6.868;2023-02-14T09:25:13;102202.00;;;17.60;39.95
33075;BME280;19433;51.292;6.868;2023-02-14T09:27:38;102191.88;;;18.13;39.74
33075;BME280;19433;51.292;6.868;2023-02-14T09:30:06;102194.16;;;17.77;39.34
33075;BME280;19433;51.292;6.868;2023-02-14T09:32:32;102200.00;;;17.88;38.98
33075;BME280;19433;51.292;6.868;2023-02-14T09:34:57;102193.25;;;18.77;37.31
33075;BME280;19433;51.292;6.868;2023-02-14T09:37:22;102206.69;;;19.32;35.59
33075;BME280;19433;51.292;6.868;2023-02-14T09:40:07;102193.00;;;18.91;36.34
33075;BME280;19433;51.292;6.868;2023-02-14T09:45:22;102212.63;;;21.56;32.04
33075;BME280;19433;51.292;6.868;2023-02-14T09:50:53;102203.25;;;20.58;33.23
33075;BME280;19433;51.292;6.868;2023-02-14T09:53:25;102196.19;;;22.08;31.91
33075;BME280;19433;51.292;6.868;2023-02-14T09:56:07;102210.22;;;23.14;29.46
33075;BME280;19433;51.292;6.868;2023-02-14T09:58:53;102210.31;;;22.73;29.23
33075;BME280;19433;51.292;6.868;2023-02-14T10:01:44;102198.66;;;20.32;32.12
33075;BME280;19433;51.292;6.868;2023-02-14T10:06:49;102189.50;;;22.32;30.55
33075;BME280;19433;51.292;6.868;2023-02-14T10:09:39;102194.97;;;22.69;29.73
33075;BME280;19433;51.292;6.868;2023-02-14T10:12:35;102203.00;;;22.84;28.97
33075;BME280;19433;51.292;6.868;2023-02-14T10:15:09;102204.31;;;25.32;26.46
33075;BME280;19433;51.292;6.868;2023-02-14T10:17:48;102208.94;;;22.64;28.84
33075;BME280;19433;51.292;6.868;2023-02-14T10:20:45;102202.59;;;22.92;28.79
33075;BME280;19433;51.292;6.868;2023-02-14T10:23:34;102202.88;;;22.37;29.62
33075;BME280;19433;51.292;6.868;2023-02-14T10:26:08;102202.00;;;23.88;27.42
33075;BME280;19433;51.292;6.868;2023-02-14T10:28:45;102198.56;;;23.34;28.00
33075;BME280;19433;51.292;6.868;2023-02-14T10:31:34;102199.53;;;23.40;28.08
33075;BME280;19433;51.292;6.868;2023-02-14T10:34:24;102187.88;;;21.65;30.25
33075;BME280;19433;51.292;6.868;2023-02-14T10:37:43;102195.75;;;21.74;30.32
33075;BME280;19433;51.292;6.868;2023-02-14T10:40:34;102204.91;;;23.65;27.74
33075;BME280;19433;51.292;6.868;2023-02-14T10:43:22;102209.63;;;24.28;26.68
33075;BME280;19433;51.292;6.868;2023-02-14T10:46:01;102190.44;;;23.38;28.09
33075;BME280;19433;51.292;6.868;2023-02-14T10:54:36;102167.38;;;22.48;29.46
33075;BME280;19433;51.292;6.868;2023-02-14T10:57:10;102168.78;;;24.85;26.10
33075;BME280;19433;51.292;6.868;2023-02-14T11:02:35;102181.09;;;28.53;22.07
33075;BME280;19433;51.292;6.868;2023-02-14T11:05:02;102173.38;;;27.55;23.12
33075;BME280;19433;51.292;6.868;2023-02-14T11:07:28;102174.31;;;25.96;24.07
33075;BME280;19433;51.292;6.868;2023-02-14T11:09:54;102167.97;;;25.62;24.40
33075;BME280;19433;51.292;6.868;2023-02-14T11:12:38;102165.03;;;26.54;23.55
33075;BME280;19433;51.292;6.868;2023-02-14T11:15:24;102157.38;;;25.14;25.61
33075;BME280;19433;51.292;6.868;2023-02-14T11:20:41;102156.94;;;25.44;24.98
33075;BME280;19433;51.292;6.868;2023-02-14T11:23:18;102166.25;;;26.10;23.86
33075;BME280;19433;51.292;6.868;2023-02-14T11:25:49;102155.34;;;25.31;25.31
33075;BME280;19433;51.292;6.868;2023-02-14T11:28:17;102155.06;;;25.98;24.32
33075;BME280;19433;51.292;6.868;2023-02-14T11:30:44;102158.97;;;27.62;22.75
33075;BME280;19433;51.292;6.868;2023-02-14T11:35:56;102158.97;;;27.20;22.68
33075;BME280;19433;51.292;6.868;2023-02-14T11:38:33;102146.38;;;26.32;22.92
33075;BME280;19433;51.292;6.868;2023-02-14T11:41:02;102134.38;;;26.51;23.46
33075;BME280;19433;51.292;6.868;2023-02-14T11:43:37;102143.25;;;26.97;22.94
33075;BME280;19433;51.292;6.868;2023-02-14T11:48:57;102133.34;;;27.05;22.51
33075;BME280;19433;51.292;6.868;2023-02-14T11:51:30;102134.59;;;27.24;22.33
33075;BME280;19433;51.292;6.868;2023-02-14T11:53:59;102130.09;;;27.95;21.59
33075;BME280;19433;51.292;6.868;2023-02-14T11:59:19;102116.94;;;29.96;20.46
33075;BME280;19433;51.292;6.868;2023-02-14T12:01:47;102121.16;;;29.49;20.08
33075;BME280;19433;51.292;6.868;2023-02-14T12:04:18;102123.50;;;29.32;20.51
33075;BME280;19433;51.292;6.868;2023-02-14T12:06:44;102113.38;;;28.90;20.87
33075;BME280;19433;51.292;6.868;2023-02-14T12:14:50;102099.13;;;28.90;21.13
33075;BME280;19433;51.292;6.868;2023-02-14T12:17:34;102092.53;;;29.10;20.63
33075;BME280;19433;51.292;6.868;2023-02-14T12:20:11;102083.75;;;27.12;21.96
33075;BME280;19433;51.292;6.868;2023-02-14T12:22:45;102081.84;;;28.26;21.54
33075;BME280;19433;51.292;6.868;2023-02-14T12:25:37;102089.56;;;30.05;20.08
33075;BME280;19433;51.292;6.868;2023-02-14T12:28:09;102080.34;;;30.47;19.08
33075;BME280;19433;51.292;6.868;2023-02-14T12:30:37;102065.16;;;27.42;21.33
33075;BME280;19433;51.292;6.868;2023-02-14T12:33:16;102055.06;;;27.91;21.96
33075;BME280;19433;51.292;6.868;2023-02-14T12:36:00;102059.28;;;27.58;21.90
33075;BME280;19433;51.292;6.868;2023-02-14T12:38:56;102066.19;;;28.28;20.70
33075;BME280;19433;51.292;6.868;2023-02-14T12:50:33;102052.50;;;27.80;21.34
33075;BME280;19433;51.292;6.868;2023-02-14T12:55:52;102033.78;;;28.04;20.98
33075;BME280;19433;51.292;6.868;2023-02-14T13:01:11;102038.03;;;26.61;22.60
33075;BME280;19433;51.292;6.868;2023-02-14T13:06:34;102015.19;;;26.04;23.15
33075;BME280;19433;51.292;6.868;2023-02-14T13:11:57;102013.22;;;26.37;22.46
33075;BME280;19433;51.292;6.868;2023-02-14T13:14:55;102001.34;;;25.00;23.88
33075;BME280;19433;51.292;6.868;2023-02-14T13:22:47;102024.38;;;28.14;21.28
33075;BME280;19433;51.292;6.868;2023-02-14T13:25:28;102003.16;;;25.33;23.83
33075;BME280;19433;51.292;6.868;2023-02-14T13:27:59;101996.91;;;25.31;24.70
33075;BME280;19433;51.292;6.868;2023-02-14T13:30:31;101991.63;;;25.40;24.28
33075;BME280;19433;51.292;6.868;2023-02-14T13:33:05;101997.84;;;25.64;23.46
33075;BME280;19433;51.292;6.868;2023-02-14T13:35:32;101973.69;;;23.01;26.61
33075;BME280;19433;51.292;6.868;2023-02-14T13:38:01;101979.31;;;22.26;28.07
33075;BME280;19433;51.292;6.868;2023-02-14T13:40:28;101971.06;;;22.48;27.73
33075;BME280;19433;51.292;6.868;2023-02-14T13:42:59;101964.38;;;21.37;29.43
33075;BME280;19433;51.292;6.868;2023-02-14T13:45:49;101955.81;;;20.05;31.73
33075;BME280;19433;51.292;6.868;2023-02-14T13:48:15;101950.31;;;18.66;33.66
33075;BME280;19433;51.292;6.868;2023-02-14T13:50:55;101945.50;;;17.29;36.07
33075;BME280;19433;51.292;6.868;2023-02-14T13:53:46;101932.28;;;16.29;38.48
33075;BME280;19433;51.292;6.868;2023-02-14T13:58:50;101931.84;;;14.78;41.40
33075;BME280;19433;51.292;6.868;2023-02-14T14:04:00;101920.22;;;14.09;44.42
33075;BME280;19433;51.292;6.868;2023-02-14T14:06:26;101918.97;;;13.97;45.36
33075;BME280;19433;51.292;6.868;2023-02-14T14:08:53;101908.03;;;13.81;45.16
33075;BME280;19433;51.292;6.868;2023-02-14T14:13:57;101923.53;;;13.60;48.17
33075;BME280;19433;51.292;6.868;2023-02-14T14:19:33;101913.75;;;13.50;47.77
33075;BME280;19433;51.292;6.868;2023-02-14T14:22:02;101905.97;;;13.45;48.42
33075;BME280;19433;51.292;6.868;2023-02-14T14:24:33;101908.28;;;13.42;49.38
33075;BME280;19433;51.292;6.868;2023-02-14T14:27:16;101904.84;;;13.54;49.47
33075;BME280;19433;51.292;6.868;2023-02-14T14:30:04;101906.50;;;13.63;47.38
33075;BME280;19433;51.292;6.868;2023-02-14T14:32:40;101903.72;;;13.63;46.89
33075;BME280;19433;51.292;6.868;2023-02-14T14:37:45;101901.22;;;13.54;47.72
33075;BME280;19433;51.292;6.868;2023-02-14T14:40:37;101892.03;;;13.53;47.70
33075;BME280;19433;51.292;6.868;2023-02-14T14:43:10;101898.78;;;13.36;48.33
33075;BME280;19433;51.292;6.868;2023-02-14T14:45:36;101891.09;;;13.23;48.76
33075;BME280;19433;51.292;6.868;2023-02-14T14:48:09;101893.59;;;13.33;48.54
33075;BME280;19433;51.292;6.868;2023-02-14T14:50:36;101881.78;;;13.16;48.96
33075;BME280;19433;51.292;6.868;2023-02-14T14:53:13;101884.50;;;13.24;48.49